Česky Dansk Deutsch English Español Suomi Français Magyar Italiano Nederlands norsk Polski Português svenska Türkçe

 

Het Weer

Logrono / Agoncillo (Spanje)

21:00, 22 augustus 2016 (GMT)

NWNNE
WE
SWSSE
Home            
Logrono / Agoncillo Vitoria Pamplona / Noain Bilbao / Sondica Burgos / Villafria San Sebastian / Fuenterrabia Biarritz Zaragoza United States Air Force Operated Base In Foreign Country Zaragoza / Aeropuerto Santander / Parayas Dax Pau Calamocha Mont-De-Marsan Valladolid / Villanubla Madri-Colmenar Biscarosse Madrid / Torrejon Madrid / Barajas Cazaux Madrid / Cuatro Vientos Madrid / Getafe Leon / Virgen Del Camino

Om een weerknop op uw website of weblog te plaatsen, copieer onderstaande code en plak die in uw pagina. In het eerste vakje staat HTML-code, in het tweede vakje UBB-code.


Add to Google

Details

Visibility:Greater than 10000 m, 10 km, 32800 ft, 6.2 miles
Clouds:CAVOC
Temperature:22°C, 72°F
Gefühlte Temperatur:25°C, 77°F
Dew-point:10°C, 50°F
Atmospheric pressure:1021 hPa, 765.8 mmHg, 30.15 inHg, 1.008 atm
Relative humidity:46.4 %
METAR:LELO 222100Z 00000KT CAVOK 22/10 Q1021

Snelkoppelingen

Actuele weersinformatie van de hele wereld. Voeg locaties toe met het plus (+) symbool. Deze snelkoppelingen kunnen worden toegevoegd aan Google.

Lid van de Technetium groep

website free tracking
StatCounter NetStat W3C Validator

28-01-2023 08:31:03
astro.technetium.be money.technetium.be phote.technetium.be tafeltennistafel.technetium.be www.ligfiets.net